Time;durP1;ratioP1;P1;durP2;ratioP2;P2;SDS_P1;SDS_P2;PMS_P1;PMS_P2;Temp;Humidity;BMP_temperature;BMP_pressure;BME280_temperature;BME280_humidity;BME280_pressure;Samples;Min_cycle;Max_cycle;Signal;HPM_P1;HPM_P2
2022/05/04 00:00:26;;;;;;;6.53;4.30;;;10.90;1.00;;;10.62;65.44;101236.13;4933789;29;20177;-70
2022/05/04 00:02:55;;;;;;;5.35;4.65;;;10.80;1.00;;;10.50;65.96;101248.53;4933675;29;20204;-70
2022/05/04 00:05:24;;;;;;;7.55;5.78;;;10.70;1.00;;;10.44;66.32;101238.47;4933717;29;20220;-70
2022/05/04 00:07:52;;;;;;;6.35;4.55;;;10.60;1.00;;;10.33;66.53;101241.66;4933363;29;20181;-70
2022/05/04 00:10:23;;;;;;;10.65;4.75;;;10.60;1.00;;;10.24;66.90;101242.81;4932951;29;20205;-69
2022/05/04 00:12:53;;;;;;;6.45;5.80;;;10.50;1.00;;;10.17;67.23;101236.47;4933101;29;20208;-70
2022/05/04 00:15:21;;;;;;;9.98;5.78;;;10.40;1.00;;;10.12;67.69;101241.63;4933249;29;20722;-70
2022/05/04 00:17:50;;;;;;;6.80;5.25;;;10.40;1.00;;;10.09;67.93;101250.09;4933249;29;20288;-70
2022/05/04 00:20:19;;;;;;;7.53;5.15;;;10.30;1.00;;;10.06;68.14;101245.09;4933504;29;20219;-70
2022/05/04 00:22:48;;;;;;;6.83;4.60;;;10.30;1.00;;;10.06;68.52;101242.38;4933150;29;20193;-70
2022/05/04 00:25:16;;;;;;;7.00;5.20;;;10.30;1.00;;;10.18;67.97;101241.72;4933665;29;20444;-71
2022/05/04 00:27:45;;;;;;;6.72;4.20;;;10.30;1.00;;;10.09;68.38;101242.00;4933445;29;20191;-70
2022/05/04 00:30:15;;;;;;;7.20;4.88;;;10.30;1.00;;;10.18;68.46;101244.41;4934815;29;20677;-71
2022/05/04 00:32:45;;;;;;;9.02;5.38;;;10.30;1.00;;;10.27;68.06;101245.13;4936938;29;20188;-71
2022/05/04 00:35:14;;;;;;;7.35;4.85;;;10.40;1.00;;;10.25;67.91;101244.50;4936482;29;20221;-70
2022/05/04 00:37:43;;;;;;;6.35;4.47;;;10.40;1.00;;;10.20;68.11;101246.94;4936286;29;20199;-70
2022/05/04 00:40:13;;;;;;;9.93;5.18;;;10.40;1.00;;;10.27;67.99;101247.84;4935100;29;20204;-70
2022/05/04 00:42:41;;;;;;;8.48;4.90;;;10.40;1.00;;;10.34;67.74;101248.75;4936818;29;20177;-70
2022/05/04 00:45:11;;;;;;;5.95;4.75;;;10.40;1.00;;;10.53;67.04;101248.13;4936494;29;20291;-70
2022/05/04 00:47:41;;;;;;;8.00;5.32;;;10.50;1.00;;;10.41;67.37;101250.50;4936596;29;20216;-70
2022/05/04 00:50:10;;;;;;;6.50;4.45;;;10.50;1.00;;;10.39;67.28;101251.72;4936301;29;20192;-70
2022/05/04 00:52:44;;;;;;;6.05;5.18;;;10.40;1.00;;;10.31;67.40;101252.66;4936213;29;20185;-70
2022/05/04 00:55:19;;;;;;;6.55;4.28;;;10.40;1.00;;;10.18;67.65;101247.13;4936128;29;20769;-70
2022/05/04 01:00:35;;;;;;;9.07;5.80;;;10.20;1.00;;;9.84;69.21;101247.72;4936523;29;20193;-71
2022/05/04 01:03:05;;;;;;;6.65;5.25;;;10.00;1.00;;;9.75;69.81;101253.44;4935825;29;20204;-70
2022/05/04 01:05:34;;;;;;;5.32;4.00;;;9.90;1.00;;;9.70;69.71;101251.28;4935998;29;20660;-71
2022/05/04 01:08:03;;;;;;;7.65;5.85;;;9.90;1.00;;;9.66;69.90;101250.00;4935971;29;20218;-70
2022/05/04 01:10:32;;;;;;;7.13;4.63;;;9.80;1.00;;;9.67;70.15;101251.69;4935866;29;20199;-70
2022/05/04 01:13:01;;;;;;;8.32;5.90;;;9.80;1.00;;;9.55;70.27;101247.75;4935775;29;20176;-70
2022/05/04 01:15:29;;;;;;;7.30;5.57;;;9.70;1.00;;;9.46;70.66;101248.88;4936581;29;20227;-70
2022/05/04 01:17:58;;;;;;;6.10;4.53;;;9.60;1.00;;;9.44;70.87;101250.94;4938758;29;20670;-70
2022/05/04 01:20:28;;;;;;;8.40;5.88;;;9.60;1.00;;;9.37;71.25;101252.69;4935789;29;20573;-71
2022/05/04 01:22:58;;;;;;;5.00;4.20;;;9.60;1.00;;;9.40;71.01;101255.00;4935651;29;20201;-70
2022/05/04 01:25:27;;;;;;;5.13;4.55;;;9.50;1.00;;;9.40;71.02;101252.31;4935344;29;20283;-70
2022/05/04 01:27:55;;;;;;;7.10;5.82;;;9.60;1.00;;;9.42;70.97;101252.97;4935361;29;20624;-70
2022/05/04 01:30:24;;;;;;;5.95;5.03;;;9.60;1.00;;;9.33;71.18;101254.94;4935681;29;20189;-70
2022/05/04 01:33:00;;;;;;;7.60;5.82;;;9.50;1.00;;;9.23;71.53;101257.06;4935570;29;20271;-70
2022/05/04 01:35:29;;;;;;;7.93;4.95;;;9.40;1.00;;;9.26;71.95;101255.84;4935358;29;20216;-71
2022/05/04 01:37:59;;;;;;;9.50;5.88;;;9.40;1.00;;;9.24;71.87;101260.59;4935857;29;20543;-70
2022/05/04 01:40:28;;;;;;;6.45;5.00;;;9.40;1.00;;;9.12;72.41;101260.22;4935207;29;20244;-69
2022/05/04 01:42:57;;;;;;;8.25;6.13;;;9.30;1.00;;;9.10;72.33;101265.78;4934504;29;20284;-71
2022/05/04 01:45:26;;;;;;;8.27;5.18;;;9.30;1.00;;;9.14;72.57;101261.72;4935234;29;20208;-70
2022/05/04 01:47:55;;;;;;;9.45;5.38;;;9.20;1.00;;;9.02;72.46;101257.78;4935009;29;20185;-69
2022/05/04 01:50:23;;;;;;;9.10;5.30;;;9.20;1.00;;;8.91;72.83;101263.59;4935109;29;20192;-70
2022/05/04 01:52:52;;;;;;;10.32;6.63;;;9.10;1.00;;;8.99;72.94;101268.94;4935095;29;20212;-70
2022/05/04 01:55:24;;;;;;;5.90;5.32;;;9.10;1.00;;;8.94;72.58;101265.94;4934624;29;20220;-70
2022/05/04 01:57:53;;;;;;;6.15;5.40;;;9.10;1.00;;;8.91;73.01;101263.59;4934770;29;20694;-70
2022/05/04 02:00:22;;;;;;;8.35;6.68;;;9.00;1.00;;;8.95;72.83;101262.25;4934554;29;20189;-70
2022/05/04 02:02:52;;;;;;;9.20;6.05;;;9.00;1.00;;;8.87;72.94;101259.59;4934554;29;20185;-71
2022/05/04 02:05:22;;;;;;;6.00;4.88;;;9.00;1.00;;;8.83;73.33;101252.88;4934839;29;20263;-69
2022/05/04 02:07:52;;;;;;;7.63;6.00;;;9.00;1.00;;;9.00;72.71;101257.13;4934647;29;20204;-71
2022/05/04 02:10:22;;;;;;;9.00;4.82;;;9.00;1.00;;;8.93;72.73;101253.47;4934649;29;20252;-70
2022/05/04 02:12:51;;;;;;;8.82;6.60;;;9.00;1.00;;;9.03;72.57;101254.06;4934883;29;20517;-70
2022/05/04 02:15:21;;;;;;;10.32;5.45;;;9.10;1.00;;;8.96;72.65;101250.41;4933122;29;20312;-70
2022/05/04 02:17:50;;;;;;;6.60;5.80;;;9.10;1.00;;;8.88;73.04;101253.19;4934378;29;20556;-70
2022/05/04 02:20:19;;;;;;;8.88;6.32;;;9.10;1.00;;;8.73;73.01;101249.59;4934333;29;20197;-71
2022/05/04 02:22:48;;;;;;;8.55;5.68;;;8.90;1.00;;;8.57;73.77;101252.41;4934503;29;20202;-71
2022/05/04 02:25:17;;;;;;;9.65;5.18;;;8.80;1.00;;;8.56;73.97;101256.16;4934422;29;20592;-70
2022/05/04 02:27:47;;;;;;;7.47;6.15;;;8.70;23.80;;;8.48;74.15;101258.88;4933877;29;20199;-70
2022/05/04 02:30:16;;;;;;;8.68;5.55;;;8.70;1.00;;;8.43;74.36;101259.44;4934710;29;20205;-69
2022/05/04 02:32:44;;;;;;;6.88;6.03;;;8.60;17.70;;;8.46;74.60;101258.25;4934556;29;20207;-70
2022/05/04 02:38:00;;;;;;;7.13;5.22;;;8.60;47.00;;;8.39;74.86;101252.72;4934362;29;20582;-68
2022/05/04 02:40:29;;;;;;;14.18;6.68;;;8.60;15.10;;;8.41;74.90;101252.56;4934859;29;20189;-69
2022/05/04 02:43:01;;;;;;;7.03;5.65;;;8.60;3.80;;;8.46;75.07;101253.69;4934407;29;20188;-69
2022/05/04 02:45:30;;;;;;;11.98;6.43;;;8.60;1.00;;;8.55;74.82;101252.63;4933037;29;20219;-72
2022/05/04 02:47:59;;;;;;;8.05;6.00;;;8.70;94.30;;;8.53;74.40;101251.94;4933886;29;20203;-70
2022/05/04 02:50:28;;;;;;;9.23;6.60;;;8.70;44.10;;;8.51;75.10;101251.31;4934519;29;20196;-70
2022/05/04 02:52:57;;;;;;;7.07;5.03;;;8.60;67.80;;;8.48;74.93;101251.66;4934012;29;20314;-70
2022/05/04 02:55:25;;;;;;;8.05;6.72;;;8.70;60.60;;;8.35;75.13;101247.88;4934123;29;20220;-71
2022/05/04 02:57:54;;;;;;;8.90;5.50;;;8.60;76.20;;;8.22;75.82;101254.69;4934172;29;20595;-70
2022/05/04 03:00:25;;;;;;;8.77;5.85;;;8.50;43.10;;;8.20;75.85;101251.31;4938362;29;20191;-70
2022/05/04 03:02:55;;;;;;;6.22;5.28;;;8.50;99.90;;;8.20;75.87;101248.59;4943146;29;20183;-70
2022/05/04 03:05:26;;;;;;;11.05;5.72;;;8.40;99.90;;;8.25;76.04;101254.31;4943962;29;20224;-70
2022/05/04 03:07:54;;;;;;;10.82;7.00;;;8.40;46.70;;;8.36;75.78;101261.19;4943477;29;20193;-70
2022/05/04 03:10:23;;;;;;;10.55;6.35;;;8.50;34.80;;;8.23;75.43;101261.72;4943403;29;20275;-70
2022/05/04 03:12:52;;;;;;;8.77;7.43;;;8.50;99.90;;;8.09;76.09;101259.78;4940643;29;20260;-70
2022/05/04 03:15:21;;;;;;;7.22;5.50;;;8.40;99.90;;;8.04;76.55;101261.31;4940213;29;20244;-70
2022/05/04 03:17:51;;;;;;;8.35;5.45;;;8.30;99.90;;;8.02;77.21;101258.00;4939660;29;20200;-70
2022/05/04 03:20:20;;;;;;;9.95;6.70;;;8.30;99.90;;;8.04;77.00;101246.00;4937556;29;20164;-70
2022/05/04 03:22:49;;;;;;;7.20;6.35;;;8.30;99.90;;;8.02;77.20;101258.84;4940236;29;20200;-70
2022/05/04 03:25:18;;;;;;;7.03;6.25;;;8.20;99.90;;;8.07;77.08;101256.44;4934117;29;20748;-70
2022/05/04 03:27:47;;;;;;;7.97;6.00;;;8.20;99.90;;;8.07;77.13;101256.44;4933627;29;20239;-70
2022/05/04 03:30:16;;;;;;;9.65;6.53;;;8.30;99.90;;;8.09;77.16;101262.47;4933812;29;20626;-70
2022/05/04 03:32:44;;;;;;;7.70;6.53;;;8.30;99.90;;;8.07;77.20;101261.00;4933739;29;20268;-71
2022/05/04 03:35:15;;;;;;;16.25;7.15;;;8.20;99.90;;;8.25;77.11;101264.25;4933648;29;20300;-70
2022/05/04 03:37:43;;;;;;;10.32;7.65;;;8.30;99.90;;;8.39;76.32;101262.66;4936755;29;20219;-71
2022/05/04 03:40:15;;;;;;;10.32;7.55;;;8.40;99.90;;;8.28;76.54;101259.34;4933770;29;20272;-69
2022/05/04 03:42:50;;;;;;;10.77;6.10;;;8.50;99.90;;;8.42;76.03;101265.88;4933426;29;20206;-70
2022/05/04 03:45:20;;;;;;;9.73;7.15;;;8.50;99.90;;;8.58;75.70;101264.88;4933511;29;20565;-71
2022/05/04 03:47:49;;;;;;;10.15;7.03;;;8.60;99.90;;;8.69;75.10;101275.28;4933950;29;20166;-70
2022/05/04 03:50:19;;;;;;;9.07;6.30;;;8.70;90.90;;;8.64;75.35;101269.56;4933944;29;20197;-70
2022/05/04 03:52:48;;;;;;;10.45;7.82;;;8.70;76.40;;;8.66;75.62;101267.53;4933667;29;20204;-70
2022/05/04 03:55:17;;;;;;;10.27;6.88;;;8.70;99.90;;;9.24;74.75;101266.00;4933297;29;20222;-70
2022/05/04 03:57:46;;;;;;;9.10;6.15;;;8.90;99.90;;;9.78;72.17;101259.28;4933534;29;20727;-69
2022/05/04 04:00:16;;;;;;;9.35;7.00;;;9.20;58.80;;;10.15;70.92;101265.56;4933137;29;20248;-69
2022/05/04 04:02:45;;;;;;;10.35;7.20;;;9.40;1.00;;;10.36;70.42;101268.34;4933214;29;20244;-69
2022/05/04 04:05:15;;;;;;;7.35;6.60;;;9.70;1.00;;;11.04;68.34;101272.31;4934654;29;20792;-69
2022/05/04 04:07:45;;;;;;;8.45;5.97;;;10.00;1.00;;;11.73;65.92;101268.66;4936619;29;20229;-70
2022/05/04 04:10:14;;;;;;;8.13;6.63;;;10.30;1.00;;;12.15;64.15;101273.00;4937138;29;20193;-70
2022/05/04 04:12:43;;;;;;;8.02;5.97;;;10.60;1.00;;;12.36;63.47;101263.88;4936689;29;20219;-70
2022/05/04 04:15:12;;;;;;;13.70;7.18;;;10.90;1.00;;;12.97;61.78;101271.94;4937297;29;20212;-71
2022/05/04 04:17:41;;;;;;;11.93;6.53;;;11.40;1.00;;;12.88;60.69;101268.56;4936661;29;20343;-70
2022/05/04 04:23:03;;;;;;;8.63;6.20;;;11.60;1.00;;;11.48;64.19;101278.25;4916695;29;20200;-71
2022/05/04 04:25:33;;;;;;;11.48;7.72;;;11.30;1.00;;;10.98;65.83;101273.09;4936630;29;20444;-70
2022/05/04 04:28:01;;;;;;;9.93;6.90;;;11.00;1.00;;;10.71;66.83;101283.69;4936695;29;20559;-69
2022/05/04 04:30:31;;;;;;;11.73;7.68;;;10.80;1.00;;;10.60;67.43;101280.66;4937083;29;20240;-70
2022/05/04 04:33:00;;;;;;;10.00;7.65;;;10.50;1.00;;;11.26;66.67;101279.38;4936174;29;20196;-70
2022/05/04 04:35:29;;;;;;;11.73;7.40;;;10.60;1.00;;;12.92;61.85;101280.69;4936425;29;20216;-71
2022/05/04 04:37:57;;;;;;;8.68;7.47;;;11.20;1.00;;;14.08;57.74;101287.22;4936190;29;20694;-70
2022/05/04 04:40:28;;;;;;;9.43;6.83;;;11.90;1.00;;;14.12;57.08;101287.63;4936327;29;20212;-70
2022/05/04 04:42:57;;;;;;;8.83;7.20;;;12.30;1.00;;;14.64;55.44;101287.38;4936090;29;20435;-71
2022/05/04 04:45:26;;;;;;;10.80;8.63;;;12.70;1.00;;;15.34;53.36;101296.25;4936533;29;20535;-70
2022/05/04 04:47:56;;;;;;;9.77;7.70;;;13.10;1.00;;;15.83;52.33;101289.09;4937174;29;20973;-71
2022/05/04 04:50:25;;;;;;;9.60;6.77;;;13.20;1.00;;;16.26;51.38;101297.16;4937781;29;20515;-71
2022/05/04 04:52:54;;;;;;;9.50;7.00;;;13.80;1.00;;;15.85;51.97;101298.69;4936005;29;20436;-71
2022/05/04 04:55:23;;;;;;;9.30;8.30;;;14.20;1.00;;;15.07;53.73;101309.28;4934852;29;20448;-71
2022/05/04 04:57:53;;;;;;;8.90;7.90;;;14.30;1.00;;;13.78;57.12;101299.66;4935676;29;21180;-70
2022/05/04 05:00:24;;;;;;;11.47;8.20;;;13.50;1.00;;;13.21;59.22;101295.78;4936446;29;20425;-70
2022/05/04 05:02:53;;;;;;;11.50;7.63;;;13.00;1.00;;;12.76;60.89;101297.38;4936199;29;20436;-69
2022/05/04 05:05:23;;;;;;;11.00;7.70;;;12.60;1.00;;;12.54;61.76;101307.56;4947126;23;20765;-77
2022/05/04 05:07:52;;;;;;;10.80;8.20;;;12.30;1.00;;;12.40;62.42;101303.13;4976074;28;20435;-75
2022/05/04 05:10:20;;;;;;;9.90;6.73;;;12.10;1.00;;;12.24;62.62;101306.25;4968347;28;20447;-76
2022/05/04 05:12:51;;;;;;;8.83;7.90;;;12.00;1.00;;;12.18;63.12;101307.03;4953966;29;20435;-75
2022/05/04 05:18:08;;;;;;;10.73;7.83;;;12.00;1.00;;;12.30;62.87;101296.41;4953866;28;20464;-71
2022/05/04 05:20:37;;;;;;;8.97;8.07;;;11.90;1.00;;;12.25;62.97;101299.75;4953991;28;20448;-76
2022/05/04 05:23:06;;;;;;;9.23;7.70;;;11.90;1.00;;;12.15;63.42;101294.69;4954078;28;20436;-76
2022/05/04 05:25:35;;;;;;;11.33;8.57;;;11.90;1.00;;;12.24;63.29;101297.25;4953068;28;21089;-75
2022/05/04 05:28:05;;;;;;;14.87;7.70;;;11.90;1.00;;;12.37;63.10;101300.84;5013709;23;20507;-67
2022/05/04 05:30:35;;;;;;;17.97;7.97;;;11.90;1.00;;;12.40;62.94;101302.28;4961094;28;20454;-69
2022/05/04 05:33:04;;;;;;;11.50;8.67;;;12.00;1.00;;;12.47;63.04;101312.16;4976331;28;20417;-69
2022/05/04 05:35:33;;;;;;;11.90;8.90;;;12.10;1.00;;;12.51;62.88;101305.28;4973699;28;21052;-70
2022/05/04 05:38:03;;;;;;;12.20;7.80;;;12.10;1.00;;;12.49;63.19;101306.53;4958161;28;20532;-69
2022/05/04 05:40:34;;;;;;;10.97;8.70;;;12.10;1.00;;;12.57;62.59;101315.31;4959094;28;20416;-69
2022/05/04 05:43:03;;;;;;;9.00;7.23;;;12.30;1.00;;;12.70;62.44;101308.22;4978054;23;20533;-71
2022/05/04 05:45:34;;;;;;;9.37;7.47;;;12.40;1.00;;;12.85;62.16;101312.44;4962352;28;20439;-71
2022/05/04 05:48:03;;;;;;;13.23;8.67;;;12.50;1.00;;;13.29;60.64;101311.88;4954105;28;20427;-69
2022/05/04 05:50:33;;;;;;;12.70;8.40;;;12.70;1.00;;;13.51;60.46;101317.91;4952065;28;20443;-71
2022/05/04 05:53:03;;;;;;;10.97;8.20;;;13.00;1.00;;;13.87;59.21;101317.41;4942205;28;20452;-70
2022/05/04 05:55:32;;;;;;;8.37;6.60;;;13.30;1.00;;;13.93;58.33;101322.00;4934728;29;20436;-70
2022/05/04 05:58:01;;;;;;;9.93;7.53;;;13.40;1.00;;;14.19;58.33;101315.63;4934596;29;20571;-70
2022/05/04 06:00:30;;;;;;;10.20;7.90;;;13.50;1.00;;;14.42;57.06;101315.16;4934588;29;20429;-71
2022/05/04 06:03:00;;;;;;;9.70;7.57;;;13.80;1.00;;;14.60;56.67;101317.97;4932226;29;20456;-70
2022/05/04 06:05:29;;;;;;;10.30;7.13;;;14.00;1.00;;;14.51;57.08;101320.13;4932384;29;20455;-71
2022/05/04 06:07:58;;;;;;;9.20;7.67;;;13.90;1.00;;;14.66;56.63;101322.56;4934724;29;20492;-72
2022/05/04 06:10:30;;;;;;;9.30;7.30;;;13.90;1.00;;;14.90;55.94;101318.22;4934304;29;20803;-70
2022/05/04 06:13:00;;;;;;;9.77;6.87;;;14.10;1.00;;;15.06;55.46;101323.09;4934426;29;20441;-72
2022/05/04 06:15:29;;;;;;;8.97;7.33;;;14.20;1.00;;;15.17;54.24;101309.59;4934588;29;20429;-70
2022/05/04 06:17:58;;;;;;;12.77;8.80;;;14.50;1.00;;;15.40;54.10;101313.59;4934726;29;20456;-70
2022/05/04 06:20:29;;;;;;;9.73;7.77;;;14.70;1.00;;;15.60;53.16;101315.13;4934778;29;21057;-71
2022/05/04 06:22:58;;;;;;;8.37;6.93;;;15.00;1.00;;;15.62;52.83;101312.19;4935268;29;20926;-72
2022/05/04 06:25:27;;;;;;;8.77;6.83;;;15.00;1.00;;;15.50;53.15;101316.66;4953548;28;20434;-71
2022/05/04 06:27:56;;;;;;;11.50;8.30;;;15.10;1.00;;;15.14;54.24;101320.13;4954867;28;20432;-69
2022/05/04 06:35:59;;;;;;;11.40;10.37;;;14.50;1.00;;;15.35;53.91;101327.91;4936373;29;20440;-69
2022/05/04 06:38:28;;;;;;;16.43;15.03;;;14.70;1.00;;;15.68;52.77;101316.75;4934146;29;20472;-72
2022/05/04 06:40:57;;;;;;;8.50;7.70;;;15.10;1.00;;;15.38;53.64;101318.47;4934542;29;20425;-70
2022/05/04 06:43:26;;;;;;;9.97;8.90;;;15.10;1.00;;;15.44;53.51;101320.31;4949591;28;20471;-70
2022/05/04 06:45:55;;;;;;;13.73;9.07;;;15.10;1.00;;;15.53;53.39;101329.91;4953120;28;20428;-70
2022/05/04 06:48:24;;;;;;;9.70;7.40;;;15.00;1.00;;;15.82;53.55;101329.19;4952822;28;20402;-69
2022/05/04 06:50:53;;;;;;;9.60;7.30;;;15.20;1.00;;;15.87;52.31;101334.81;4953601;28;20428;-70
2022/05/04 06:53:29;;;;;;;9.90;8.47;;;15.30;1.00;;;15.43;53.06;101326.81;4952744;28;20550;-71
2022/05/04 06:55:58;;;;;;;8.63;6.90;;;15.30;1.00;;;15.56;52.99;101334.88;4943301;28;20438;-70
2022/05/04 06:58:27;;;;;;;8.27;7.13;;;15.20;1.00;;;15.65;53.09;101334.38;4933415;29;20456;-70
2022/05/04 07:00:56;;;;;;;10.57;8.23;;;15.10;1.00;;;15.94;52.76;101327.34;4938200;29;20800;-71
2022/05/04 07:03:25;;;;;;;7.60;6.70;;;15.20;1.00;;;16.05;52.15;101325.78;4939647;28;20455;-72
2022/05/04 07:05:54;;;;;;;8.20;6.83;;;15.40;1.00;;;16.40;51.80;101325.97;4943988;29;20722;-71
2022/05/04 07:08:23;;;;;;;8.27;6.13;;;15.60;1.00;;;16.44;51.24;101322.56;4946805;28;20444;-70
2022/05/04 07:10:54;;;;;;;11.03;6.93;;;15.90;1.00;;;16.44;51.10;101324.44;4933465;29;20460;-70
2022/05/04 07:13:23;;;;;;;12.83;8.00;;;15.90;1.00;;;16.47;51.25;101315.78;4943682;28;20439;-70
2022/05/04 07:15:53;;;;;;;8.30;7.47;;;15.80;1.00;;;16.71;51.26;101323.03;4947179;29;20527;-71
2022/05/04 07:18:22;;;;;;;9.10;7.63;;;15.90;1.00;;;16.81;50.73;101322.47;4933857;29;20496;-71
2022/05/04 07:20:51;;;;;;;6.50;5.90;;;16.00;1.00;;;16.84;50.71;101322.88;4944392;28;20488;-71
2022/05/04 07:23:20;;;;;;;10.53;7.53;;;16.10;1.00;;;17.22;50.36;101318.91;4951997;28;20434;-70
2022/05/04 07:25:51;;;;;;;7.87;7.07;;;16.50;1.00;;;17.26;50.49;101318.19;4944111;28;20438;-72
2022/05/04 07:28:22;;;;;;;9.50;7.07;;;16.60;1.00;;;17.22;50.21;101318.91;4951099;28;20412;-70
2022/05/04 07:30:51;;;;;;;9.67;7.53;;;16.70;1.00;;;17.23;49.96;101326.03;4940621;29;20476;-70
2022/05/04 07:33:21;;;;;;;10.73;8.50;;;16.80;1.00;;;17.37;49.06;101322.00;4936743;29;20854;-71
2022/05/04 07:35:50;;;;;;;9.00;7.70;;;17.00;1.00;;;17.42;48.60;101319.41;4937768;29;20427;-71
2022/05/04 07:38:19;;;;;;;8.83;7.90;;;16.70;1.00;;;17.36;49.22;101317.59;4934646;28;20812;-72
2022/05/04 07:43:35;;;;;;;8.67;7.60;;;16.80;1.00;;;17.06;49.45;101316.84;4937747;29;21031;-70
2022/05/04 07:46:05;;;;;;;10.83;8.37;;;17.00;1.00;;;17.10;49.65;101316.13;4943546;29;20432;-71
2022/05/04 07:48:36;;;;;;;7.90;7.20;;;16.80;1.00;;;16.88;49.70;101307.66;4942522;28;20795;-70
2022/05/04 07:51:05;;;;;;;13.80;7.70;;;16.70;1.00;;;17.01;49.85;101322.19;4940129;29;20440;-69
2022/05/04 07:53:34;;;;;;;7.33;6.53;;;16.70;1.00;;;16.90;49.20;101324.66;4946634;28;20460;-71
2022/05/04 07:56:02;;;;;;;8.17;6.37;;;16.60;1.00;;;16.80;50.08;101329.84;4949743;29;20405;-71
2022/05/04 07:58:31;;;;;;;7.37;6.00;;;16.40;1.00;;;17.11;49.17;101325.19;4942600;29;21050;-70
2022/05/04 08:06:35;;;;;;;6.57;5.80;;;16.70;1.00;;;16.91;49.09;101334.53;4939768;29;20435;-68
2022/05/04 08:09:04;;;;;;;6.43;5.73;;;16.70;1.00;;;17.08;49.21;101328.38;4936135;29;20432;-69
2022/05/04 08:11:33;;;;;;;8.77;6.30;;;16.70;1.00;;;17.03;48.40;101334.56;4936868;29;20429;-70
2022/05/04 08:14:01;;;;;;;6.80;5.03;;;16.80;1.00;;;17.12;48.63;101330.41;4936993;29;20507;-70
2022/05/04 08:16:32;;;;;;;6.13;5.50;;;16.90;1.00;;;17.20;48.57;101332.81;4936640;29;20410;-69
2022/05/04 08:19:01;;;;;;;7.80;6.50;;;17.00;1.00;;;17.48;47.56;101340.31;4934725;29;20823;-70
2022/05/04 08:21:30;;;;;;;7.17;5.43;;;17.20;1.00;;;17.24;47.43;101333.16;4937007;29;20972;-70
2022/05/04 08:24:00;;;;;;;5.93;5.40;;;17.10;1.00;;;17.27;47.59;101338.19;4942307;29;20967;-70
2022/05/04 08:26:42;;;;;;;6.60;5.30;;;17.00;1.00;;;17.58;46.97;101329.63;4944288;29;20456;-69
2022/05/04 08:29:12;;;;;;;8.53;5.67;;;17.10;1.00;;;17.74;46.45;101339.06;4940187;29;20453;-69
2022/05/04 08:31:42;;;;;;;6.83;5.23;;;17.30;1.00;;;17.44;46.78;101336.41;4941643;29;20468;-71
2022/05/04 08:34:12;;;;;;;5.77;5.07;;;17.40;1.00;;;17.21;47.14;101344.56;4943758;29;20402;-70
2022/05/04 08:36:41;;;;;;;5.93;5.20;;;17.20;1.00;;;17.31;46.94;101339.38;4940267;28;20443;-70
2022/05/04 08:39:10;;;;;;;6.10;4.73;;;17.10;1.00;;;17.65;45.97;101341.34;4950115;29;21505;-70
2022/05/04 08:41:42;;;;;;;4.90;4.40;;;17.30;1.00;;;17.43;45.75;101342.94;4955201;28;20432;-69
2022/05/04 08:44:13;;;;;;;5.90;5.30;;;17.40;1.00;;;17.46;45.93;101333.44;4951255;28;20447;-70
2022/05/04 08:46:45;;;;;;;9.37;6.37;;;17.30;1.00;;;17.88;45.56;101326.78;4947445;28;20856;-70
2022/05/04 08:49:16;;;;;;;8.50;5.93;;;17.30;1.00;;;18.12;44.44;101330.31;4955283;28;20489;-69
2022/05/04 08:51:48;;;;;;;7.30;4.97;;;17.60;1.00;;;17.65;44.96;101324.91;4954751;28;20440;-69
2022/05/04 08:54:17;;;;;;;6.20;5.60;;;17.60;1.00;;;18.02;44.95;101324.63;4955271;28;20438;-70
2022/05/04 08:56:47;;;;;;;5.63;4.87;;;17.70;1.00;;;18.23;44.35;101332.22;4942767;29;20463;-70
2022/05/04 08:59:16;;;;;;;4.80;4.03;;;17.70;1.00;;;18.30;43.61;101327.41;4935798;29;20464;-70
2022/05/04 09:01:47;;;;;;;10.63;5.13;;;17.90;1.00;;;18.48;43.95;101323.69;4948696;28;20530;-69
2022/05/04 09:04:15;;;;;;;5.70;4.50;;;18.00;1.00;;;18.83;43.09;101326.31;4936535;29;20540;-70
2022/05/04 09:06:46;;;;;;;6.27;4.47;;;18.20;1.00;;;18.96;42.67;101323.25;4942342;29;20875;-71
2022/05/04 09:09:16;;;;;;;8.23;5.53;;;18.40;1.00;;;18.95;42.46;101325.16;4952811;29;20406;-70
2022/05/04 09:11:47;;;;;;;8.07;5.07;;;18.40;1.00;;;18.87;42.83;101322.81;4940039;28;20456;-69
2022/05/04 09:14:25;;;;;;;7.07;6.37;;;18.30;1.00;;;19.09;42.57;101325.66;4934915;29;20520;-69
2022/05/04 09:16:57;;;;;;;5.40;3.90;;;18.30;1.00;;;19.29;41.56;101327.91;4941593;29;20435;-72
2022/05/04 09:19:27;;;;;;;7.00;6.20;;;18.80;1.00;;;19.24;41.49;101312.19;4938085;29;20493;-70
2022/05/04 09:21:56;;;;;;;6.67;4.80;;;18.70;1.00;;;19.49;41.41;101314.56;4952096;28;20463;-70
2022/05/04 09:24:29;;;;;;;6.23;5.17;;;19.00;1.00;;;19.38;41.10;101313.53;4934360;28;20452;-69
2022/05/04 09:26:59;;;;;;;5.83;5.23;;;19.00;1.00;;;19.59;40.86;101311.13;4937656;29;20442;-70
2022/05/04 09:29:36;;;;;;;6.13;5.43;;;19.10;1.00;;;19.72;40.53;101317.09;4938365;29;20524;-72
2022/05/04 09:32:17;;;;;;;4.30;3.90;;;19.30;1.00;;;19.90;40.58;101304.97;4939700;28;20543;-70
2022/05/04 09:34:51;;;;;;;6.17;5.40;;;19.20;1.00;;;20.19;40.13;101309.22;4943272;28;20960;-70
2022/05/04 09:45:55;;;;;;;7.20;4.80;;;19.80;1.00;;;21.17;38.43;101301.78;4939802;29;20435;-69
2022/05/04 09:48:36;;;;;;;6.10;4.30;;;20.20;1.00;;;20.93;38.31;101306.78;4942394;29;20435;-70
2022/05/04 09:51:09;;;;;;;5.63;5.00;;;20.00;1.00;;;20.78;38.98;101301.13;4936698;29;20800;-71
2022/05/04 09:53:39;;;;;;;8.67;5.43;;;19.90;1.00;;;20.78;38.94;101309.38;4938984;28;20427;-69
2022/05/04 09:56:09;;;;;;;5.63;4.40;;;20.00;1.00;;;20.83;38.92;101301.16;4952406;28;20457;-71
2022/05/04 09:58:39;;;;;;;11.47;5.73;;;20.00;1.00;;;20.95;38.48;101307.34;4938422;29;20854;-70
2022/05/04 10:01:09;;;;;;;12.30;5.60;;;20.20;1.00;;;21.04;38.20;101305.78;4949676;29;20475;-72
2022/05/04 10:03:40;;;;;;;6.20;5.33;;;20.30;1.00;;;20.81;38.52;101303.38;4940665;28;20431;-69
2022/05/04 10:06:10;;;;;;;6.43;4.80;;;20.20;1.00;;;20.79;38.62;101292.63;4945648;29;20411;-71
2022/05/04 10:08:40;;;;;;;5.90;5.30;;;20.20;1.00;;;20.68;38.67;101303.75;4937634;29;20403;-71
2022/05/04 10:11:09;;;;;;;5.73;5.13;;;20.10;1.00;;;20.74;39.46;101299.97;4942622;29;20413;-71
2022/05/04 10:13:38;;;;;;;7.10;5.27;;;20.00;1.00;;;20.83;38.69;101301.16;4947428;28;20442;-70
2022/05/04 10:16:10;;;;;;;8.90;5.90;;;20.40;1.00;;;20.95;38.57;101303.78;4943065;29;20550;-70
2022/05/04 10:18:46;;;;;;;8.73;5.63;;;20.40;1.00;;;20.94;39.31;101299.34;4934946;29;20470;-71
2022/05/04 10:21:19;;;;;;;6.27;5.23;;;20.40;1.00;;;21.15;38.49;101302.06;4940676;28;20451;-71
2022/05/04 10:23:54;;;;;;;6.07;5.47;;;20.50;1.00;;;20.95;38.38;101296.34;4945180;28;20423;-68
2022/05/04 10:26:33;;;;;;;7.57;5.77;;;20.80;1.00;;;21.25;38.12;101295.81;4953947;29;20414;-69
2022/05/04 10:32:09;;;;;;;8.63;5.93;;;21.00;1.00;;;21.47;37.94;101288.25;4953704;28;20433;-70
2022/05/04 10:34:43;;;;;;;8.50;5.93;;;21.10;1.00;;;21.30;37.79;101286.75;4953708;28;20403;-75
2022/05/04 10:37:12;;;;;;;6.93;5.67;;;21.10;1.00;;;20.94;37.88;101286.44;4952499;28;20422;-71
2022/05/04 10:39:42;;;;;;;6.87;5.10;;;20.30;1.00;;;21.22;37.40;101286.16;4947785;28;20975;-72
2022/05/04 10:42:54;;;;;;;6.50;5.60;;;20.50;1.00;;;21.40;37.34;101286.81;4971729;28;20434;-70
2022/05/04 10:45:25;;;;;;;6.53;5.90;;;20.80;1.00;;;21.23;37.72;101287.81;4973496;28;20534;-69
2022/05/04 10:48:03;;;;;;;6.60;5.20;;;20.70;1.00;;;21.08;37.81;101284.91;4959538;29;20471;-69
2022/05/04 10:50:52;;;;;;;9.03;6.00;;;20.60;1.00;;;20.66;38.37;101290.28;4954629;28;20780;-69
2022/05/04 10:53:42;;;;;;;8.13;6.43;;;20.10;1.00;;;20.49;38.32;101275.78;4953394;28;20514;-72
2022/05/04 10:56:17;;;;;;;6.13;5.10;;;20.10;1.00;;;20.63;38.89;101279.78;4952728;28;20457;-69
2022/05/04 10:58:56;;;;;;;7.50;5.00;;;20.00;1.00;;;20.71;39.01;101278.50;4953166;28;20954;-69
2022/05/04 11:01:30;;;;;;;6.47;5.77;;;20.10;1.00;;;20.92;38.45;101280.34;4953575;29;20946;-69
2022/05/04 11:04:22;;;;;;;9.50;5.70;;;20.10;1.00;;;20.95;37.82;101273.50;4953432;28;20430;-69
2022/05/04 11:07:06;;;;;;;6.50;5.67;;;20.20;1.00;;;21.06;38.15;101277.97;4952063;28;20911;-69
2022/05/04 11:09:38;;;;;;;7.97;6.70;;;20.40;1.00;;;21.14;38.07;101272.06;4938687;28;20456;-70